sensor_id;sensor_type;location;lat;lon;timestamp;P1;durP1;ratioP1;P2;durP2;ratioP2
14013;SDS011;49110;52.584;13.408;2023-02-22T00:00:05;19.37;;;4.13;;
14013;SDS011;49110;52.584;13.408;2023-02-22T00:01:18;21.10;;;4.77;;
14013;SDS011;49110;52.584;13.408;2023-02-22T00:02:27;14.80;;;3.73;;
14013;SDS011;49110;52.584;13.408;2023-02-22T00:03:29;19.93;;;4.40;;
14013;SDS011;49110;52.584;13.408;2023-02-22T00:04:33;18.10;;;4.30;;
14013;SDS011;49110;52.584;13.408;2023-02-22T00:05:34;19.03;;;4.83;;
14013;SDS011;49110;52.584;13.408;2023-02-22T00:06:35;17.57;;;4.47;;
14013;SDS011;49110;52.584;13.408;2023-02-22T00:07:35;21.07;;;4.73;;
14013;SDS011;49110;52.584;13.408;2023-02-22T00:08:36;13.37;;;4.37;;
14013;SDS011;49110;52.584;13.408;2023-02-22T00:09:36;21.53;;;5.00;;
14013;SDS011;49110;52.584;13.408;2023-02-22T00:10:37;16.23;;;3.83;;
14013;SDS011;49110;52.584;13.408;2023-02-22T00:11:37;14.87;;;4.27;;
14013;SDS011;49110;52.584;13.408;2023-02-22T00:12:39;15.67;;;4.07;;
14013;SDS011;49110;52.584;13.408;2023-02-22T00:13:41;14.23;;;4.50;;
14013;SDS011;49110;52.584;13.408;2023-02-22T00:14:43;14.60;;;3.97;;
14013;SDS011;49110;52.584;13.408;2023-02-22T00:15:44;16.80;;;4.43;;
14013;SDS011;49110;52.584;13.408;2023-02-22T00:16:44;15.93;;;3.77;;
14013;SDS011;49110;52.584;13.408;2023-02-22T00:17:45;14.10;;;3.97;;
14013;SDS011;49110;52.584;13.408;2023-02-22T00:18:46;16.23;;;3.83;;
14013;SDS011;49110;52.584;13.408;2023-02-22T00:19:47;17.13;;;4.07;;
14013;SDS011;49110;52.584;13.408;2023-02-22T00:20:48;14.33;;;4.77;;
14013;SDS011;49110;52.584;13.408;2023-02-22T00:21:51;20.33;;;4.53;;
14013;SDS011;49110;52.584;13.408;2023-02-22T00:22:52;18.17;;;4.30;;
14013;SDS011;49110;52.584;13.408;2023-02-22T00:23:53;18.00;;;4.13;;
14013;SDS011;49110;52.584;13.408;2023-02-22T00:24:53;18.80;;;4.43;;
14013;SDS011;49110;52.584;13.408;2023-02-22T00:25:57;21.90;;;4.60;;
14013;SDS011;49110;52.584;13.408;2023-02-22T00:26:59;16.73;;;4.77;;
14013;SDS011;49110;52.584;13.408;2023-02-22T00:27:59;18.53;;;3.87;;
14013;SDS011;49110;52.584;13.408;2023-02-22T00:29:00;21.90;;;4.57;;
14013;SDS011;49110;52.584;13.408;2023-02-22T00:30:02;15.70;;;4.20;;
14013;SDS011;49110;52.584;13.408;2023-02-22T00:31:04;18.60;;;4.70;;
14013;SDS011;49110;52.584;13.408;2023-02-22T00:32:05;15.50;;;4.17;;
14013;SDS011;49110;52.584;13.408;2023-02-22T00:33:06;12.17;;;3.80;;
14013;SDS011;49110;52.584;13.408;2023-02-22T00:34:06;14.10;;;4.33;;
14013;SDS011;49110;52.584;13.408;2023-02-22T00:35:06;17.57;;;4.43;;
14013;SDS011;49110;52.584;13.408;2023-02-22T00:36:08;17.97;;;4.27;;
14013;SDS011;49110;52.584;13.408;2023-02-22T00:37:09;15.10;;;3.80;;
14013;SDS011;49110;52.584;13.408;2023-02-22T00:38:11;23.30;;;4.60;;
14013;SDS011;49110;52.584;13.408;2023-02-22T00:39:13;15.57;;;4.50;;
14013;SDS011;49110;52.584;13.408;2023-02-22T00:40:15;23.00;;;4.60;;
14013;SDS011;49110;52.584;13.408;2023-02-22T00:41:17;17.20;;;4.88;;
14013;SDS011;49110;52.584;13.408;2023-02-22T00:42:18;18.57;;;4.20;;
14013;SDS011;49110;52.584;13.408;2023-02-22T00:43:18;14.23;;;4.30;;
14013;SDS011;49110;52.584;13.408;2023-02-22T00:44:19;15.47;;;3.47;;
14013;SDS011;49110;52.584;13.408;2023-02-22T00:45:20;18.83;;;4.00;;
14013;SDS011;49110;52.584;13.408;2023-02-22T00:46:23;15.67;;;3.73;;
14013;SDS011;49110;52.584;13.408;2023-02-22T00:47:23;17.97;;;4.63;;
14013;SDS011;49110;52.584;13.408;2023-02-22T00:48:25;21.53;;;4.53;;
14013;SDS011;49110;52.584;13.408;2023-02-22T00:49:25;12.27;;;3.77;;
14013;SDS011;49110;52.584;13.408;2023-02-22T00:50:27;15.63;;;5.20;;
14013;SDS011;49110;52.584;13.408;2023-02-22T00:51:28;23.23;;;4.63;;
14013;SDS011;49110;52.584;13.408;2023-02-22T00:52:29;20.33;;;5.20;;
14013;SDS011;49110;52.584;13.408;2023-02-22T00:53:30;18.83;;;4.60;;
14013;SDS011;49110;52.584;13.408;2023-02-22T00:54:30;20.13;;;4.60;;
14013;SDS011;49110;52.584;13.408;2023-02-22T00:55:32;17.23;;;4.40;;
14013;SDS011;49110;52.584;13.408;2023-02-22T00:56:34;17.87;;;4.73;;
14013;SDS011;49110;52.584;13.408;2023-02-22T00:57:34;17.40;;;4.17;;
14013;SDS011;49110;52.584;13.408;2023-02-22T00:58:35;23.50;;;4.40;;
14013;SDS011;49110;52.584;13.408;2023-02-22T00:59:36;15.43;;;4.33;;
14013;SDS011;49110;52.584;13.408;2023-02-22T01:00:37;16.13;;;4.57;;
14013;SDS011;49110;52.584;13.408;2023-02-22T01:01:40;19.73;;;4.57;;
14013;SDS011;49110;52.584;13.408;2023-02-22T01:02:42;19.00;;;4.83;;
14013;SDS011;49110;52.584;13.408;2023-02-22T01:03:42;23.53;;;5.00;;
14013;SDS011;49110;52.584;13.408;2023-02-22T01:04:43;19.97;;;5.03;;
14013;SDS011;49110;52.584;13.408;2023-02-22T01:05:44;15.17;;;4.30;;
14013;SDS011;49110;52.584;13.408;2023-02-22T01:06:44;22.77;;;5.00;;
14013;SDS011;49110;52.584;13.408;2023-02-22T01:07:45;18.30;;;4.63;;
14013;SDS011;49110;52.584;13.408;2023-02-22T01:08:47;22.13;;;4.97;;
14013;SDS011;49110;52.584;13.408;2023-02-22T01:09:48;17.13;;;4.93;;
14013;SDS011;49110;52.584;13.408;2023-02-22T01:10:48;17.63;;;4.93;;
14013;SDS011;49110;52.584;13.408;2023-02-22T01:11:51;17.27;;;4.40;;
14013;SDS011;49110;52.584;13.408;2023-02-22T01:12:54;17.17;;;4.60;;
14013;SDS011;49110;52.584;13.408;2023-02-22T01:13:56;19.47;;;4.47;;
14013;SDS011;49110;52.584;13.408;2023-02-22T01:14:56;11.60;;;3.47;;
14013;SDS011;49110;52.584;13.408;2023-02-22T01:15:57;17.00;;;3.90;;
14013;SDS011;49110;52.584;13.408;2023-02-22T01:16:59;18.37;;;4.30;;
14013;SDS011;49110;52.584;13.408;2023-02-22T01:18:00;15.90;;;4.30;;
14013;SDS011;49110;52.584;13.408;2023-02-22T01:19:00;16.47;;;4.57;;
14013;SDS011;49110;52.584;13.408;2023-02-22T01:20:01;18.70;;;3.73;;
14013;SDS011;49110;52.584;13.408;2023-02-22T01:21:08;15.83;;;4.80;;
14013;SDS011;49110;52.584;13.408;2023-02-22T01:22:09;23.23;;;4.67;;
14013;SDS011;49110;52.584;13.408;2023-02-22T01:23:14;17.77;;;4.53;;
14013;SDS011;49110;52.584;13.408;2023-02-22T01:24:16;15.45;;;4.13;;
14013;SDS011;49110;52.584;13.408;2023-02-22T01:25:18;18.13;;;5.13;;
14013;SDS011;49110;52.584;13.408;2023-02-22T01:26:20;14.77;;;4.10;;
14013;SDS011;49110;52.584;13.408;2023-02-22T01:27:21;18.63;;;4.73;;
14013;SDS011;49110;52.584;13.408;2023-02-22T01:28:21;13.90;;;4.77;;
14013;SDS011;49110;52.584;13.408;2023-02-22T01:29:22;15.27;;;4.40;;
14013;SDS011;49110;52.584;13.408;2023-02-22T01:30:24;19.43;;;4.70;;
14013;SDS011;49110;52.584;13.408;2023-02-22T01:31:26;12.70;;;4.07;;
14013;SDS011;49110;52.584;13.408;2023-02-22T01:32:27;20.67;;;4.43;;
14013;SDS011;49110;52.584;13.408;2023-02-22T01:33:27;22.40;;;4.67;;
14013;SDS011;49110;52.584;13.408;2023-02-22T01:34:28;23.97;;;5.43;;
14013;SDS011;49110;52.584;13.408;2023-02-22T01:35:30;14.70;;;4.20;;
14013;SDS011;49110;52.584;13.408;2023-02-22T01:36:31;18.67;;;5.00;;
14013;SDS011;49110;52.584;13.408;2023-02-22T01:37:32;15.37;;;4.40;;
14013;SDS011;49110;52.584;13.408;2023-02-22T01:38:32;17.70;;;4.37;;
14013;SDS011;49110;52.584;13.408;2023-02-22T01:39:33;17.50;;;4.50;;
14013;SDS011;49110;52.584;13.408;2023-02-22T01:40:39;15.07;;;3.90;;
14013;SDS011;49110;52.584;13.408;2023-02-22T01:41:41;21.17;;;5.10;;
14013;SDS011;49110;52.584;13.408;2023-02-22T01:42:42;20.57;;;4.83;;
14013;SDS011;49110;52.584;13.408;2023-02-22T01:43:43;24.23;;;5.10;;
14013;SDS011;49110;52.584;13.408;2023-02-22T01:44:44;19.73;;;4.43;;
14013;SDS011;49110;52.584;13.408;2023-02-22T01:45:47;19.03;;;4.90;;
14013;SDS011;49110;52.584;13.408;2023-02-22T01:47:19;17.13;;;4.77;;
14013;SDS011;49110;52.584;13.408;2023-02-22T01:48:25;21.87;;;4.20;;
14013;SDS011;49110;52.584;13.408;2023-02-22T01:49:36;17.87;;;4.77;;
14013;SDS011;49110;52.584;13.408;2023-02-22T01:50:44;21.30;;;4.37;;
14013;SDS011;49110;52.584;13.408;2023-02-22T01:51:53;14.93;;;3.80;;
14013;SDS011;49110;52.584;13.408;2023-02-22T01:52:56;23.50;;;5.07;;
14013;SDS011;49110;52.584;13.408;2023-02-22T01:54:01;17.07;;;4.37;;
14013;SDS011;49110;52.584;13.408;2023-02-22T01:55:08;18.00;;;4.90;;
14013;SDS011;49110;52.584;13.408;2023-02-22T01:56:10;16.53;;;4.27;;
14013;SDS011;49110;52.584;13.408;2023-02-22T01:57:17;12.13;;;3.83;;
14013;SDS011;49110;52.584;13.408;2023-02-22T01:58:24;15.80;;;4.70;;
14013;SDS011;49110;52.584;13.408;2023-02-22T01:59:26;17.07;;;4.63;;
14013;SDS011;49110;52.584;13.408;2023-02-22T02:00:32;14.67;;;4.40;;
14013;SDS011;49110;52.584;13.408;2023-02-22T02:01:33;15.70;;;3.90;;
14013;SDS011;49110;52.584;13.408;2023-02-22T02:02:40;18.30;;;4.73;;
14013;SDS011;49110;52.584;13.408;2023-02-22T02:03:44;15.57;;;4.22;;
14013;SDS011;49110;52.584;13.408;2023-02-22T02:04:45;13.03;;;4.00;;
14013;SDS011;49110;52.584;13.408;2023-02-22T02:05:45;17.33;;;4.43;;
14013;SDS011;49110;52.584;13.408;2023-02-22T02:06:46;18.10;;;4.50;;
14013;SDS011;49110;52.584;13.408;2023-02-22T02:07:47;17.50;;;4.60;;
14013;SDS011;49110;52.584;13.408;2023-02-22T02:08:51;17.03;;;4.43;;
14013;SDS011;49110;52.584;13.408;2023-02-22T02:10:02;15.40;;;4.27;;
14013;SDS011;49110;52.584;13.408;2023-02-22T02:11:06;17.53;;;4.63;;
14013;SDS011;49110;52.584;13.408;2023-02-22T02:12:08;25.67;;;5.00;;
14013;SDS011;49110;52.584;13.408;2023-02-22T02:13:11;20.70;;;4.57;;
14013;SDS011;49110;52.584;13.408;2023-02-22T02:14:12;16.23;;;4.87;;
14013;SDS011;49110;52.584;13.408;2023-02-22T02:15:24;15.40;;;4.40;;
14013;SDS011;49110;52.584;13.408;2023-02-22T02:16:25;17.67;;;4.53;;
14013;SDS011;49110;52.584;13.408;2023-02-22T02:17:35;19.07;;;4.27;;
14013;SDS011;49110;52.584;13.408;2023-02-22T02:18:36;21.23;;;4.70;;
14013;SDS011;49110;52.584;13.408;2023-02-22T02:21:54;17.08;;;3.95;;
14013;SDS011;49110;52.584;13.408;2023-02-22T02:23:37;24.88;;;5.43;;
14013;SDS011;49110;52.584;13.408;2023-02-22T02:31:03;17.40;;;4.40;;
14013;SDS011;49110;52.584;13.408;2023-02-22T02:32:34;24.97;;;5.10;;
14013;SDS011;49110;52.584;13.408;2023-02-22T02:36:18;12.63;;;4.13;;
14013;SDS011;49110;52.584;13.408;2023-02-22T02:37:41;21.53;;;4.27;;
14013;SDS011;49110;52.584;13.408;2023-02-22T02:39:04;14.57;;;3.90;;
14013;SDS011;49110;52.584;13.408;2023-02-22T02:41:31;19.23;;;4.93;;
14013;SDS011;49110;52.584;13.408;2023-02-22T02:42:37;17.17;;;4.40;;
14013;SDS011;49110;52.584;13.408;2023-02-22T02:43:50;17.10;;;4.00;;
14013;SDS011;49110;52.584;13.408;2023-02-22T02:45:01;18.93;;;4.73;;
14013;SDS011;49110;52.584;13.408;2023-02-22T02:46:19;18.37;;;5.20;;
14013;SDS011;49110;52.584;13.408;2023-02-22T02:47:34;15.47;;;3.83;;
14013;SDS011;49110;52.584;13.408;2023-02-22T02:48:40;19.27;;;5.23;;
14013;SDS011;49110;52.584;13.408;2023-02-22T02:49:49;18.97;;;5.03;;
14013;SDS011;49110;52.584;13.408;2023-02-22T02:50:55;18.17;;;5.43;;
14013;SDS011;49110;52.584;13.408;2023-02-22T02:51:58;16.27;;;4.63;;
14013;SDS011;49110;52.584;13.408;2023-02-22T02:53:03;15.93;;;4.47;;
14013;SDS011;49110;52.584;13.408;2023-02-22T02:54:07;18.63;;;4.77;;
14013;SDS011;49110;52.584;13.408;2023-02-22T02:55:09;14.60;;;4.53;;
14013;SDS011;49110;52.584;13.408;2023-02-22T02:56:10;15.50;;;4.20;;
14013;SDS011;49110;52.584;13.408;2023-02-22T02:57:11;14.60;;;4.40;;
14013;SDS011;49110;52.584;13.408;2023-02-22T02:58:16;18.37;;;4.80;;
14013;SDS011;49110;52.584;13.408;2023-02-22T02:59:26;18.47;;;4.73;;
14013;SDS011;49110;52.584;13.408;2023-02-22T03:00:32;18.50;;;4.60;;
14013;SDS011;49110;52.584;13.408;2023-02-22T03:02:57;19.13;;;4.80;;
14013;SDS011;49110;52.584;13.408;2023-02-22T03:05:06;20.00;;;5.17;;
14013;SDS011;49110;52.584;13.408;2023-02-22T03:08:26;17.33;;;5.13;;
14013;SDS011;49110;52.584;13.408;2023-02-22T03:09:55;16.43;;;4.80;;
14013;SDS011;49110;52.584;13.408;2023-02-22T03:11:12;19.03;;;4.97;;
14013;SDS011;49110;52.584;13.408;2023-02-22T03:13:31;19.17;;;4.60;;
14013;SDS011;49110;52.584;13.408;2023-02-22T03:14:49;19.83;;;4.73;;
14013;SDS011;49110;52.584;13.408;2023-02-22T03:17:41;17.60;;;4.50;;
14013;SDS011;49110;52.584;13.408;2023-02-22T03:18:54;19.33;;;5.07;;
14013;SDS011;49110;52.584;13.408;2023-02-22T03:20:45;17.90;;;4.50;;
14013;SDS011;49110;52.584;13.408;2023-02-22T03:21:32;14.20;;;4.53;;
14013;SDS011;49110;52.584;13.408;2023-02-22T03:22:36;18.30;;;5.13;;
14013;SDS011;49110;52.584;13.408;2023-02-22T03:23:44;16.03;;;4.77;;
14013;SDS011;49110;52.584;13.408;2023-02-22T03:24:56;18.13;;;5.03;;
14013;SDS011;49110;52.584;13.408;2023-02-22T03:26:07;14.80;;;4.60;;
14013;SDS011;49110;52.584;13.408;2023-02-22T03:27:22;18.47;;;5.00;;
14013;SDS011;49110;52.584;13.408;2023-02-22T03:28:42;18.73;;;4.20;;
14013;SDS011;49110;52.584;13.408;2023-02-22T03:29:45;29.30;;;6.10;;
14013;SDS011;49110;52.584;13.408;2023-02-22T03:30:51;22.33;;;5.03;;
14013;SDS011;49110;52.584;13.408;2023-02-22T03:31:57;18.05;;;5.18;;
14013;SDS011;49110;52.584;13.408;2023-02-22T03:33:04;26.60;;;5.00;;
14013;SDS011;49110;52.584;13.408;2023-02-22T03:34:14;21.60;;;4.63;;
14013;SDS011;49110;52.584;13.408;2023-02-22T03:35:27;15.40;;;4.50;;
14013;SDS011;49110;52.584;13.408;2023-02-22T03:36:33;19.20;;;4.47;;
14013;SDS011;49110;52.584;13.408;2023-02-22T03:37:41;15.20;;;4.10;;
14013;SDS011;49110;52.584;13.408;2023-02-22T03:38:45;14.45;;;4.50;;
14013;SDS011;49110;52.584;13.408;2023-02-22T03:39:48;14.13;;;4.50;;
14013;SDS011;49110;52.584;13.408;2023-02-22T03:40:51;16.48;;;4.30;;
14013;SDS011;49110;52.584;13.408;2023-02-22T03:41:57;16.30;;;4.40;;
14013;SDS011;49110;52.584;13.408;2023-02-22T03:43:18;17.80;;;4.60;;
14013;SDS011;49110;52.584;13.408;2023-02-22T03:44:24;18.83;;;4.63;;
14013;SDS011;49110;52.584;13.408;2023-02-22T03:45:28;19.83;;;4.57;;
14013;SDS011;49110;52.584;13.408;2023-02-22T03:46:30;20.20;;;4.78;;
14013;SDS011;49110;52.584;13.408;2023-02-22T03:47:40;21.27;;;4.77;;
14013;SDS011;49110;52.584;13.408;2023-02-22T03:48:45;14.15;;;4.82;;
14013;SDS011;49110;52.584;13.408;2023-02-22T03:50:00;21.65;;;5.30;;
14013;SDS011;49110;52.584;13.408;2023-02-22T03:51:14;20.53;;;5.03;;
14013;SDS011;49110;52.584;13.408;2023-02-22T03:52:16;13.30;;;4.33;;
14013;SDS011;49110;52.584;13.408;2023-02-22T03:53:18;12.70;;;4.22;;
14013;SDS011;49110;52.584;13.408;2023-02-22T03:54:19;18.77;;;5.03;;
14013;SDS011;49110;52.584;13.408;2023-02-22T03:55:20;15.73;;;4.57;;
14013;SDS011;49110;52.584;13.408;2023-02-22T03:56:27;23.33;;;5.47;;
14013;SDS011;49110;52.584;13.408;2023-02-22T03:57:35;16.90;;;4.60;;
14013;SDS011;49110;52.584;13.408;2023-02-22T03:58:39;17.77;;;5.07;;
14013;SDS011;49110;52.584;13.408;2023-02-22T03:59:46;20.33;;;5.00;;
14013;SDS011;49110;52.584;13.408;2023-02-22T04:00:47;12.13;;;4.17;;
14013;SDS011;49110;52.584;13.408;2023-02-22T04:01:52;19.00;;;4.63;;
14013;SDS011;49110;52.584;13.408;2023-02-22T04:02:54;13.82;;;4.45;;
14013;SDS011;49110;52.584;13.408;2023-02-22T04:03:54;15.67;;;4.37;;
14013;SDS011;49110;52.584;13.408;2023-02-22T04:04:55;20.70;;;4.57;;
14013;SDS011;49110;52.584;13.408;2023-02-22T04:05:55;24.50;;;5.20;;
14013;SDS011;49110;52.584;13.408;2023-02-22T04:06:56;19.40;;;5.37;;
14013;SDS011;49110;52.584;13.408;2023-02-22T04:07:56;19.17;;;4.93;;
14013;SDS011;49110;52.584;13.408;2023-02-22T04:08:58;19.73;;;4.97;;
14013;SDS011;49110;52.584;13.408;2023-02-22T04:09:58;19.87;;;5.90;;
14013;SDS011;49110;52.584;13.408;2023-02-22T04:11:01;17.23;;;4.90;;
14013;SDS011;49110;52.584;13.408;2023-02-22T04:12:02;21.70;;;5.97;;
14013;SDS011;49110;52.584;13.408;2023-02-22T04:13:03;26.07;;;5.83;;
14013;SDS011;49110;52.584;13.408;2023-02-22T04:14:05;14.45;;;5.05;;
14013;SDS011;49110;52.584;13.408;2023-02-22T04:15:07;23.40;;;6.33;;
14013;SDS011;49110;52.584;13.408;2023-02-22T04:16:08;23.73;;;5.90;;
14013;SDS011;49110;52.584;13.408;2023-02-22T04:17:08;19.37;;;6.87;;
14013;SDS011;49110;52.584;13.408;2023-02-22T04:18:09;20.50;;;7.60;;
14013;SDS011;49110;52.584;13.408;2023-02-22T04:19:09;31.57;;;8.20;;
14013;SDS011;49110;52.584;13.408;2023-02-22T04:20:10;27.60;;;8.90;;
14013;SDS011;49110;52.584;13.408;2023-02-22T04:21:12;21.53;;;8.13;;
14013;SDS011;49110;52.584;13.408;2023-02-22T04:22:13;25.38;;;8.27;;
14013;SDS011;49110;52.584;13.408;2023-02-22T04:23:14;19.27;;;7.33;;
14013;SDS011;49110;52.584;13.408;2023-02-22T04:24:15;21.13;;;8.32;;
14013;SDS011;49110;52.584;13.408;2023-02-22T04:25:16;30.17;;;8.57;;
14013;SDS011;49110;52.584;13.408;2023-02-22T04:26:17;25.03;;;7.63;;
14013;SDS011;49110;52.584;13.408;2023-02-22T04:27:18;30.93;;;8.53;;
14013;SDS011;49110;52.584;13.408;2023-02-22T04:28:18;29.30;;;8.20;;
14013;SDS011;49110;52.584;13.408;2023-02-22T04:29:19;29.27;;;8.63;;
14013;SDS011;49110;52.584;13.408;2023-02-22T04:30:20;24.30;;;7.87;;
14013;SDS011;49110;52.584;13.408;2023-02-22T04:31:21;26.20;;;7.83;;
14013;SDS011;49110;52.584;13.408;2023-02-22T04:32:21;24.40;;;8.30;;
14013;SDS011;49110;52.584;13.408;2023-02-22T04:33:22;21.63;;;7.67;;
14013;SDS011;49110;52.584;13.408;2023-02-22T04:34:22;22.00;;;7.63;;
14013;SDS011;49110;52.584;13.408;2023-02-22T04:35:23;23.60;;;8.30;;
14013;SDS011;49110;52.584;13.408;2023-02-22T04:36:24;22.53;;;8.13;;
14013;SDS011;49110;52.584;13.408;2023-02-22T04:37:25;25.67;;;7.37;;
14013;SDS011;49110;52.584;13.408;2023-02-22T04:38:26;28.60;;;7.50;;
14013;SDS011;49110;52.584;13.408;2023-02-22T04:39:26;23.03;;;6.90;;
14013;SDS011;49110;52.584;13.408;2023-02-22T04:40:27;27.77;;;6.57;;
14013;SDS011;49110;52.584;13.408;2023-02-22T04:41:27;29.60;;;8.00;;
14013;SDS011;49110;52.584;13.408;2023-02-22T04:42:28;25.50;;;6.70;;
14013;SDS011;49110;52.584;13.408;2023-02-22T04:43:28;22.00;;;7.30;;
14013;SDS011;49110;52.584;13.408;2023-02-22T04:44:29;24.87;;;7.37;;
14013;SDS011;49110;52.584;13.408;2023-02-22T04:45:30;21.00;;;7.33;;
14013;SDS011;49110;52.584;13.408;2023-02-22T04:46:30;21.80;;;7.10;;
14013;SDS011;49110;52.584;13.408;2023-02-22T04:47:30;24.53;;;7.90;;
14013;SDS011;49110;52.584;13.408;2023-02-22T04:48:31;25.40;;;7.80;;
14013;SDS011;49110;52.584;13.408;2023-02-22T04:49:31;24.13;;;7.90;;
14013;SDS011;49110;52.584;13.408;2023-02-22T04:50:32;18.93;;;6.97;;
14013;SDS011;49110;52.584;13.408;2023-02-22T04:51:33;21.43;;;7.27;;
14013;SDS011;49110;52.584;13.408;2023-02-22T04:52:35;20.53;;;7.27;;
14013;SDS011;49110;52.584;13.408;2023-02-22T04:53:35;27.73;;;7.30;;
14013;SDS011;49110;52.584;13.408;2023-02-22T04:54:36;26.27;;;8.00;;
14013;SDS011;49110;52.584;13.408;2023-02-22T04:55:37;23.57;;;8.37;;
14013;SDS011;49110;52.584;13.408;2023-02-22T04:56:37;17.93;;;6.90;;
14013;SDS011;49110;52.584;13.408;2023-02-22T04:57:38;24.47;;;8.00;;
14013;SDS011;49110;52.584;13.408;2023-02-22T04:58:38;24.17;;;6.90;;
14013;SDS011;49110;52.584;13.408;2023-02-22T04:59:39;22.33;;;7.60;;
14013;SDS011;49110;52.584;13.408;2023-02-22T05:00:39;22.97;;;8.03;;
14013;SDS011;49110;52.584;13.408;2023-02-22T05:01:40;21.77;;;7.83;;
14013;SDS011;49110;52.584;13.408;2023-02-22T05:02:41;20.10;;;6.63;;
14013;SDS011;49110;52.584;13.408;2023-02-22T05:03:41;17.47;;;6.67;;
14013;SDS011;49110;52.584;13.408;2023-02-22T05:04:42;24.45;;;8.30;;
14013;SDS011;49110;52.584;13.408;2023-02-22T05:05:43;33.37;;;8.37;;
14013;SDS011;49110;52.584;13.408;2023-02-22T05:06:44;22.20;;;7.20;;
14013;SDS011;49110;52.584;13.408;2023-02-22T05:07:44;24.17;;;7.67;;
14013;SDS011;49110;52.584;13.408;2023-02-22T05:08:45;20.47;;;7.57;;
14013;SDS011;49110;52.584;13.408;2023-02-22T05:09:45;26.30;;;8.37;;
14013;SDS011;49110;52.584;13.408;2023-02-22T05:10:46;21.93;;;7.73;;
14013;SDS011;49110;52.584;13.408;2023-02-22T05:11:46;23.80;;;8.10;;
14013;SDS011;49110;52.584;13.408;2023-02-22T05:12:47;23.30;;;7.40;;
14013;SDS011;49110;52.584;13.408;2023-02-22T05:13:47;23.27;;;7.57;;
14013;SDS011;49110;52.584;13.408;2023-02-22T05:14:48;24.57;;;7.83;;
14013;SDS011;49110;52.584;13.408;2023-02-22T05:15:48;21.00;;;7.03;;
14013;SDS011;49110;52.584;13.408;2023-02-22T05:16:49;27.57;;;7.20;;
14013;SDS011;49110;52.584;13.408;2023-02-22T05:17:50;22.87;;;7.20;;
14013;SDS011;49110;52.584;13.408;2023-02-22T05:18:51;28.63;;;8.20;;
14013;SDS011;49110;52.584;13.408;2023-02-22T05:19:51;22.87;;;7.53;;
14013;SDS011;49110;52.584;13.408;2023-02-22T05:20:52;24.93;;;7.60;;
14013;SDS011;49110;52.584;13.408;2023-02-22T05:21:52;26.23;;;7.30;;
14013;SDS011;49110;52.584;13.408;2023-02-22T05:22:55;25.53;;;7.80;;
14013;SDS011;49110;52.584;13.408;2023-02-22T05:23:57;18.73;;;6.90;;
14013;SDS011;49110;52.584;13.408;2023-02-22T05:24:57;18.47;;;6.23;;
14013;SDS011;49110;52.584;13.408;2023-02-22T05:25:58;18.70;;;6.70;;
14013;SDS011;49110;52.584;13.408;2023-02-22T05:26:59;20.67;;;6.57;;
14013;SDS011;49110;52.584;13.408;2023-02-22T05:28:01;22.97;;;7.03;;
14013;SDS011;49110;52.584;13.408;2023-02-22T05:29:07;20.50;;;7.22;;
14013;SDS011;49110;52.584;13.408;2023-02-22T05:30:09;19.93;;;6.37;;
14013;SDS011;49110;52.584;13.408;2023-02-22T05:31:10;18.45;;;5.85;;
14013;SDS011;49110;52.584;13.408;2023-02-22T05:32:11;27.10;;;6.73;;
14013;SDS011;49110;52.584;13.408;2023-02-22T05:33:11;32.30;;;7.23;;
14013;SDS011;49110;52.584;13.408;2023-02-22T05:34:12;23.47;;;6.60;;
14013;SDS011;49110;52.584;13.408;2023-02-22T05:35:13;22.95;;;7.10;;
14013;SDS011;49110;52.584;13.408;2023-02-22T05:36:13;25.30;;;6.87;;
14013;SDS011;49110;52.584;13.408;2023-02-22T05:37:15;19.15;;;6.57;;
14013;SDS011;49110;52.584;13.408;2023-02-22T05:38:16;20.47;;;6.43;;
14013;SDS011;49110;52.584;13.408;2023-02-22T05:39:16;22.77;;;7.03;;
14013;SDS011;49110;52.584;13.408;2023-02-22T05:40:17;22.83;;;6.93;;
14013;SDS011;49110;52.584;13.408;2023-02-22T05:41:19;25.97;;;6.97;;
14013;SDS011;49110;52.584;13.408;2023-02-22T05:42:20;21.27;;;6.30;;
14013;SDS011;49110;52.584;13.408;2023-02-22T05:43:21;20.50;;;7.13;;
14013;SDS011;49110;52.584;13.408;2023-02-22T05:44:21;25.50;;;6.33;;
14013;SDS011;49110;52.584;13.408;2023-02-22T05:45:23;22.27;;;6.60;;
14013;SDS011;49110;52.584;13.408;2023-02-22T05:46:25;21.73;;;6.45;;
14013;SDS011;49110;52.584;13.408;2023-02-22T05:47:25;20.33;;;6.73;;
14013;SDS011;49110;52.584;13.408;2023-02-22T05:48:26;21.40;;;6.83;;
14013;SDS011;49110;52.584;13.408;2023-02-22T05:49:27;18.23;;;6.60;;
14013;SDS011;49110;52.584;13.408;2023-02-22T05:50:27;23.40;;;7.07;;
14013;SDS011;49110;52.584;13.408;2023-02-22T05:51:28;23.07;;;7.43;;
14013;SDS011;49110;52.584;13.408;2023-02-22T05:52:28;22.97;;;7.47;;
14013;SDS011;49110;52.584;13.408;2023-02-22T05:53:29;21.53;;;6.70;;
14013;SDS011;49110;52.584;13.408;2023-02-22T05:54:29;23.03;;;7.23;;
14013;SDS011;49110;52.584;13.408;2023-02-22T05:55:30;22.87;;;7.17;;
14013;SDS011;49110;52.584;13.408;2023-02-22T05:56:30;17.43;;;6.40;;
14013;SDS011;49110;52.584;13.408;2023-02-22T05:57:31;22.33;;;6.90;;
14013;SDS011;49110;52.584;13.408;2023-02-22T05:58:31;19.30;;;6.13;;
14013;SDS011;49110;52.584;13.408;2023-02-22T05:59:32;16.50;;;5.93;;
14013;SDS011;49110;52.584;13.408;2023-02-22T06:00:32;19.20;;;5.80;;
14013;SDS011;49110;52.584;13.408;2023-02-22T06:01:33;28.17;;;6.43;;
14013;SDS011;49110;52.584;13.408;2023-02-22T06:02:33;24.77;;;6.90;;
14013;SDS011;49110;52.584;13.408;2023-02-22T06:03:34;22.37;;;6.57;;
14013;SDS011;49110;52.584;13.408;2023-02-22T06:04:34;32.23;;;7.30;;
14013;SDS011;49110;52.584;13.408;2023-02-22T06:05:35;22.03;;;6.47;;
14013;SDS011;49110;52.584;13.408;2023-02-22T06:06:36;23.17;;;6.20;;
14013;SDS011;49110;52.584;13.408;2023-02-22T06:07:37;26.87;;;7.77;;
14013;SDS011;49110;52.584;13.408;2023-02-22T06:08:37;18.57;;;6.20;;
14013;SDS011;49110;52.584;13.408;2023-02-22T06:09:38;21.10;;;6.90;;
14013;SDS011;49110;52.584;13.408;2023-02-22T06:10:38;22.97;;;6.17;;
14013;SDS011;49110;52.584;13.408;2023-02-22T06:11:39;21.47;;;6.40;;
14013;SDS011;49110;52.584;13.408;2023-02-22T06:12:39;32.57;;;7.17;;
14013;SDS011;49110;52.584;13.408;2023-02-22T06:13:40;27.83;;;6.40;;
14013;SDS011;49110;52.584;13.408;2023-02-22T06:14:44;19.07;;;6.30;;
14013;SDS011;49110;52.584;13.408;2023-02-22T06:15:45;20.38;;;6.60;;
14013;SDS011;49110;52.584;13.408;2023-02-22T06:16:51;16.23;;;6.57;;
14013;SDS011;49110;52.584;13.408;2023-02-22T06:17:52;20.35;;;6.57;;
14013;SDS011;49110;52.584;13.408;2023-02-22T06:18:54;29.08;;;6.70;;
14013;SDS011;49110;52.584;13.408;2023-02-22T06:19:55;25.27;;;6.90;;
14013;SDS011;49110;52.584;13.408;2023-02-22T06:20:56;27.75;;;7.07;;
14013;SDS011;49110;52.584;13.408;2023-02-22T06:21:57;16.45;;;6.63;;
14013;SDS011;49110;52.584;13.408;2023-02-22T06:22:59;22.00;;;6.97;;
14013;SDS011;49110;52.584;13.408;2023-02-22T06:24:01;25.90;;;6.50;;
14013;SDS011;49110;52.584;13.408;2023-02-22T06:25:03;26.20;;;6.70;;
14013;SDS011;49110;52.584;13.408;2023-02-22T06:26:04;21.40;;;6.18;;
14013;SDS011;49110;52.584;13.408;2023-02-22T06:27:05;27.77;;;7.07;;
14013;SDS011;49110;52.584;13.408;2023-02-22T06:28:05;21.70;;;6.77;;
14013;SDS011;49110;52.584;13.408;2023-02-22T06:29:06;27.47;;;6.60;;